Airfield :
LOGIN :

Register | Disclaimer

   EN    FR    IT 

 










Legend :    VFR   Marginal VFR   IFR   Intensive IFR   Very Intensive IFR
Visi :
Ceiling :
>= 8 km
>= 3000ft
5 to 8 km
1000 to 3000 ft
1500m to 5 km
500 to 1000 ft
800 to 1500m
200 to 500 ft
< 800m
< 200 ft
Symbols :   Thunderstorms  Fog  Heavy snow  Heavy precipitations  Wind > 20 kt
SIGMETs :     Misc.  Thunderstorms  Icing  Turbulence  Mountain Waves  Volcanic Ashes






- Airport Elevation : 171 ft
- IATA code : EGC


LFBE - Bergerac

CURRENT METAR :
  • 261130Z AUTO VRB02KT 7000 NSC 04/04 Q1033 NOSIG

EXPIRED METARs :
  • 261100Z AUTO 00000KT 4600 BR FEW002 03/03 Q1033 TEMPO BKN002 BECMG 9999 NSW
  • 261030Z AUTO 00000KT 0900 R27/1300D FG VV/// 00/00 Q1034 BECMG CAVOK
  • 261000Z AUTO 00000KT 0300 R27/0375N FZFG VV/// M01/M01 Q1034 BECMG 5000 NSW BKN002
  • 260930Z AUTO VRB02KT 0400 0350 R27/0500D FZFG VV/// M02/M02 Q1034 BECMG 5000 NSW BKN002
  • 260900Z AUTO VRB01KT 0300 R27/0550U FZFG VV/// M03/M03 Q1033 BECMG 5000 NSW BKN002

TAF TAF LFBE
Valid from the 26 at 12:00 until the 27 at 12:00 UTC


261100Z 2612/2712 VRB02KT 6000 NSC
BECMG 2613/2615 CAVOK
BECMG 2619/2621 3000 BR
BECMG 2621/2623 0300 FG VV///
BECMG 2710/2712 6000 NSC



MET'MAP, your aeronautical weather chart ! - Copyright ORBIFLY December 2007 - Disclaimer

ORBIFLY MET'MAP TEAM :

Programming & Development : Alexandra Zaïnal
Original concept : Baudouin d'Aumeries
Technical & hardware support : Manuel Goepfert
Assistance : Marc-Olivier Méhu

Contact : metmap@orbifly.com




SOURCES & CREDITS :

   NOAA